createdAt,value
2023-05-10T00:01:37.037Z,4.13
2023-05-10T00:04:03.625Z,3.90
2023-05-10T00:06:30.152Z,3.78
2023-05-10T00:08:56.608Z,4.55
2023-05-10T00:11:23.257Z,4.10
2023-05-10T00:13:49.834Z,3.83
2023-05-10T00:16:17.618Z,3.83
2023-05-10T00:18:44.117Z,3.47
2023-05-10T00:21:10.549Z,3.72
2023-05-10T00:23:36.989Z,3.92
2023-05-10T00:26:03.352Z,4.32
2023-05-10T00:28:29.878Z,4.00
2023-05-10T00:30:57.136Z,4.07
2023-05-10T00:33:24.888Z,3.65
2023-05-10T00:35:51.335Z,3.80
2023-05-10T00:38:17.807Z,3.97
2023-05-10T00:40:44.310Z,4.10
2023-05-10T00:43:18.583Z,4.22
2023-05-10T00:45:45.484Z,3.20
2023-05-10T00:48:12.025Z,4.22
2023-05-10T00:50:40.221Z,3.72
2023-05-10T00:53:07.101Z,4.63
2023-05-10T00:55:33.690Z,4.20
2023-05-10T00:58:00.151Z,4.70
2023-05-10T01:00:26.717Z,4.10
2023-05-10T01:02:54.349Z,4.70
2023-05-10T01:05:22.607Z,4.15
2023-05-10T01:07:50.416Z,4.38
2023-05-10T01:10:17.216Z,3.65
2023-05-10T01:12:47.204Z,3.80
2023-05-10T01:15:17.075Z,3.90
2023-05-10T01:17:47.678Z,4.25
2023-05-10T01:20:16.389Z,4.13
2023-05-10T01:23:24.849Z,4.28
2023-05-10T01:26:14.880Z,3.72
2023-05-10T01:29:13.052Z,4.10
2023-05-10T01:32:09.997Z,3.78
2023-05-10T01:34:47.836Z,4.07
2023-05-10T01:37:21.111Z,4.53
2023-05-10T01:39:55.866Z,3.75
2023-05-10T01:42:27.595Z,3.88
2023-05-10T01:44:59.469Z,3.63
2023-05-10T01:47:35.663Z,4.32
2023-05-10T01:50:05.642Z,4.18
2023-05-10T01:52:37.454Z,4.15
2023-05-10T01:55:07.338Z,4.53
2023-05-10T01:57:37.916Z,4.10
2023-05-10T02:00:07.468Z,4.25
2023-05-10T02:02:46.806Z,3.47
2023-05-10T02:05:18.047Z,4.10
2023-05-10T02:07:46.059Z,4.50
2023-05-10T02:10:14.363Z,4.25
2023-05-10T02:12:44.010Z,3.95
2023-05-10T02:15:13.090Z,4.07
2023-05-10T02:17:41.096Z,4.20
2023-05-10T02:20:11.106Z,4.03
2023-05-10T02:22:38.664Z,4.25
2023-05-10T02:25:07.670Z,3.90
2023-05-10T02:27:35.521Z,4.07
2023-05-10T02:30:02.774Z,4.43
2023-05-10T02:32:30.698Z,4.05
2023-05-10T02:34:58.217Z,4.22
2023-05-10T02:37:26.387Z,4.72
2023-05-10T02:39:55.895Z,4.25
2023-05-10T02:42:27.031Z,4.47
2023-05-10T02:44:55.510Z,4.10
2023-05-10T02:47:22.004Z,4.30
2023-05-10T02:49:48.742Z,4.50
2023-05-10T02:52:19.980Z,4.10
2023-05-10T02:54:51.141Z,4.45
2023-05-10T02:57:22.433Z,5.18
2023-05-10T02:59:49.060Z,3.85
2023-05-10T03:02:15.705Z,3.95
2023-05-10T03:04:42.245Z,4.55
2023-05-10T03:07:09.061Z,4.82
2023-05-10T03:09:36.067Z,4.47
2023-05-10T03:12:08.631Z,4.43
2023-05-10T03:14:49.962Z,4.28
2023-05-10T03:17:23.418Z,4.38
2023-05-10T03:19:54.514Z,4.18
2023-05-10T03:22:26.117Z,3.88
2023-05-10T03:24:56.207Z,5.35
2023-05-10T03:27:27.020Z,4.53
2023-05-10T03:29:55.647Z,4.20
2023-05-10T03:32:22.998Z,4.53
2023-05-10T03:34:49.436Z,3.90
2023-05-10T03:37:15.910Z,4.15
2023-05-10T03:39:42.398Z,3.83
2023-05-10T03:42:10.124Z,3.70
2023-05-10T03:44:37.883Z,4.47
2023-05-10T03:47:04.595Z,4.18
2023-05-10T03:49:31.164Z,4.68
2023-05-10T03:51:57.561Z,4.32
2023-05-10T03:54:23.965Z,5.43
2023-05-10T03:56:50.396Z,4.43
2023-05-10T03:59:18.338Z,4.18
2023-05-10T04:01:46.218Z,4.18
2023-05-10T04:04:12.802Z,4.30
2023-05-10T04:06:39.523Z,4.40
2023-05-10T04:09:06.061Z,5.30
2023-05-10T04:11:32.579Z,4.15
2023-05-10T04:13:59.054Z,3.92
2023-05-10T04:16:25.591Z,4.55
2023-05-10T04:18:53.468Z,3.42
2023-05-10T04:21:19.849Z,4.72
2023-05-10T04:23:46.425Z,4.47
2023-05-10T04:26:13.609Z,4.53
2023-05-10T04:28:40.073Z,4.97
2023-05-10T04:31:08.213Z,4.57
2023-05-10T04:33:34.790Z,4.00
2023-05-10T04:36:03.002Z,4.60
2023-05-10T04:38:29.980Z,3.88
2023-05-10T04:41:04.798Z,4.50
2023-05-10T04:43:31.141Z,3.75
2023-05-10T04:45:57.622Z,4.35
2023-05-10T04:48:24.101Z,4.75
2023-05-10T04:50:50.548Z,4.28
2023-05-10T04:53:18.299Z,4.80
2023-05-10T04:55:44.632Z,4.30
2023-05-10T04:58:11.009Z,3.47
2023-05-10T05:00:37.468Z,3.85
2023-05-10T05:03:04.453Z,3.40
2023-05-10T05:05:30.878Z,3.67
2023-05-10T05:07:57.299Z,3.85
2023-05-10T05:10:25.069Z,3.17
2023-05-10T05:12:52.697Z,5.03
2023-05-10T05:15:19.086Z,4.15
2023-05-10T05:17:45.604Z,3.72
2023-05-10T05:20:12.393Z,4.40
2023-05-10T05:22:38.886Z,4.85
2023-05-10T05:25:06.497Z,4.07
2023-05-10T05:27:34.299Z,3.53
2023-05-10T05:30:00.712Z,4.03
2023-05-10T05:32:27.280Z,4.28
2023-05-10T05:34:53.682Z,3.70
2023-05-10T05:37:21.226Z,3.90
2023-05-10T05:39:48.406Z,3.83
2023-05-10T05:42:15.030Z,4.03
2023-05-10T05:44:44.339Z,3.40
2023-05-10T05:47:10.881Z,3.47
2023-05-10T05:49:37.406Z,4.57
2023-05-10T05:52:04.803Z,4.18
2023-05-10T05:57:26.031Z,4.57
2023-05-10T05:59:53.944Z,3.83
2023-05-10T06:02:20.396Z,4.72
2023-05-10T06:04:46.854Z,3.78
2023-05-10T06:07:13.373Z,3.58
2023-05-10T06:09:39.826Z,3.42
2023-05-10T06:12:06.407Z,4.13
2023-05-10T06:14:32.818Z,4.45
2023-05-10T06:17:00.741Z,3.28
2023-05-10T06:19:27.266Z,4.10
2023-05-10T06:21:53.999Z,4.25
2023-05-10T06:24:20.590Z,3.75
2023-05-10T06:26:47.043Z,5.20
2023-05-10T06:29:13.568Z,7.70
2023-05-10T06:31:39.997Z,3.28
2023-05-10T06:34:07.813Z,9.65
2023-05-10T06:36:34.291Z,3.38
2023-05-10T06:39:01.185Z,4.18
2023-05-10T06:41:27.533Z,4.20
2023-05-10T06:43:54.000Z,3.50
2023-05-10T06:46:20.450Z,3.63
2023-05-10T06:48:47.035Z,3.47
2023-05-10T06:51:14.873Z,3.63
2023-05-10T06:53:41.283Z,3.42
2023-05-10T06:56:07.730Z,3.42
2023-05-10T06:58:34.174Z,3.65
2023-05-10T07:01:04.481Z,3.83
2023-05-10T07:03:31.002Z,4.95
2023-05-10T07:06:01.261Z,3.78
2023-05-10T07:08:29.019Z,4.00
2023-05-10T07:11:00.709Z,5.32
2023-05-10T07:13:27.193Z,4.00
2023-05-10T07:15:53.694Z,3.70
2023-05-10T07:18:20.165Z,3.58
2023-05-10T07:20:46.682Z,3.75
2023-05-10T07:23:15.445Z,3.40
2023-05-10T07:25:46.125Z,3.75
2023-05-10T07:28:15.700Z,3.80
2023-05-10T07:30:42.586Z,4.15
2023-05-10T07:33:09.688Z,3.60
2023-05-10T07:35:36.487Z,3.78
2023-05-10T07:38:08.584Z,3.80
2023-05-10T07:40:38.019Z,4.05
2023-05-10T07:43:05.875Z,3.92
2023-05-10T07:45:32.302Z,3.65
2023-05-10T07:47:58.759Z,4.03
2023-05-10T07:50:25.206Z,3.92
2023-05-10T07:52:51.637Z,3.28
2023-05-10T07:55:19.646Z,3.67
2023-05-10T07:57:48.489Z,3.92
2023-05-10T08:00:21.404Z,3.97
2023-05-10T08:02:50.595Z,3.78
2023-05-10T08:05:20.577Z,4.10
2023-05-10T08:07:46.969Z,3.95
2023-05-10T08:10:15.575Z,4.10
2023-05-10T08:12:42.002Z,4.30
2023-05-10T08:15:11.710Z,3.38
2023-05-10T08:17:51.363Z,3.15
2023-05-10T08:20:17.815Z,4.15
2023-05-10T08:22:44.287Z,3.88
2023-05-10T08:25:10.711Z,4.03
2023-05-10T08:27:37.114Z,4.47
2023-05-10T08:30:04.033Z,4.53
2023-05-10T08:32:30.510Z,3.95
2023-05-10T08:34:58.289Z,4.63
2023-05-10T08:37:25.104Z,4.65
2023-05-10T08:39:51.483Z,4.10
2023-05-10T08:42:22.455Z,4.40
2023-05-10T08:44:49.875Z,4.72
2023-05-10T08:47:19.038Z,4.15
2023-05-10T08:49:50.421Z,4.97
2023-05-10T08:52:19.537Z,4.93
2023-05-10T08:54:46.062Z,4.00
2023-05-10T08:57:12.988Z,4.78
2023-05-10T08:59:52.211Z,4.72
2023-05-10T09:02:22.467Z,4.70
2023-05-10T09:04:51.909Z,5.85
2023-05-10T09:07:25.025Z,5.78
2023-05-10T09:09:51.905Z,5.60
2023-05-10T09:12:21.078Z,5.75
2023-05-10T09:14:49.784Z,5.53
2023-05-10T09:17:18.867Z,6.03
2023-05-10T09:19:47.245Z,6.00
2023-05-10T09:22:13.990Z,4.95
2023-05-10T09:24:44.477Z,6.32
2023-05-10T09:27:13.330Z,5.97
2023-05-10T09:29:42.926Z,5.80
2023-05-10T09:32:09.757Z,6.82
2023-05-10T09:34:40.082Z,6.85
2023-05-10T09:37:06.964Z,6.10
2023-05-10T09:39:34.758Z,6.20
2023-05-10T09:42:06.383Z,6.50
2023-05-10T09:44:33.282Z,6.35
2023-05-10T09:47:00.017Z,6.97
2023-05-10T09:49:26.401Z,6.10
2023-05-10T09:52:03.892Z,6.47
2023-05-10T09:54:54.756Z,6.72
2023-05-10T09:57:25.695Z,6.53
2023-05-10T10:00:05.697Z,6.82
2023-05-10T10:03:31.370Z,7.45
2023-05-10T10:06:26.813Z,6.82
2023-05-10T10:09:08.693Z,6.50
2023-05-10T10:11:43.105Z,7.57
2023-05-10T10:14:13.384Z,7.05
2023-05-10T10:17:41.945Z,7.05
2023-05-10T10:21:00.908Z,6.82
2023-05-10T10:23:32.043Z,7.35
2023-05-10T10:25:59.140Z,6.65
2023-05-10T10:28:34.514Z,6.93
2023-05-10T10:31:25.130Z,7.70
2023-05-10T10:34:10.292Z,7.90
2023-05-10T10:36:50.957Z,7.07
2023-05-10T10:39:45.526Z,7.53
2023-05-10T10:42:35.003Z,8.35
2023-05-10T10:46:37.937Z,7.50
2023-05-10T10:51:16.950Z,7.22
2023-05-10T10:54:15.826Z,7.40
2023-05-10T10:57:33.530Z,8.20
2023-05-10T11:04:20.773Z,7.97
2023-05-10T11:07:22.678Z,7.00
2023-05-10T11:09:53.483Z,7.90
2023-05-10T11:12:43.471Z,7.88
2023-05-10T11:15:35.746Z,8.13
2023-05-10T11:18:43.408Z,7.15
2023-05-10T11:21:49.922Z,8.73
2023-05-10T11:24:29.135Z,8.27
2023-05-10T11:27:00.816Z,8.40
2023-05-10T11:29:28.969Z,8.88
2023-05-10T11:31:58.862Z,9.20
2023-05-10T11:34:33.407Z,8.13
2023-05-10T11:37:07.376Z,8.00
2023-05-10T11:39:37.937Z,9.35
2023-05-10T11:42:04.740Z,9.05
2023-05-10T11:44:31.844Z,8.80
2023-05-10T11:47:02.502Z,8.38
2023-05-10T11:49:31.604Z,10.45
2023-05-10T11:52:11.120Z,10.13
2023-05-10T11:54:48.521Z,9.60
2023-05-10T11:57:17.540Z,9.02
2023-05-10T11:59:59.613Z,10.23
2023-05-10T12:02:36.378Z,9.75
2023-05-10T12:05:06.676Z,8.95
2023-05-10T12:07:37.259Z,10.13
2023-05-10T12:10:16.069Z,10.20
2023-05-10T12:12:48.382Z,9.07
2023-05-10T12:15:26.212Z,9.98
2023-05-10T12:17:54.824Z,10.35
2023-05-10T12:20:30.110Z,9.50
2023-05-10T12:23:09.242Z,10.82
2023-05-10T12:25:38.202Z,10.30
2023-05-10T12:28:10.307Z,9.98
2023-05-10T12:30:48.301Z,9.32
2023-05-10T12:33:23.595Z,10.82
2023-05-10T12:35:55.153Z,9.52
2023-05-10T12:38:38.878Z,10.38
2023-05-10T12:41:16.281Z,8.90
2023-05-10T12:43:45.977Z,8.65
2023-05-10T12:46:18.821Z,7.93
2023-05-10T12:48:55.195Z,8.38
2023-05-10T12:54:08.721Z,8.88
2023-05-10T12:56:35.272Z,8.63
2023-05-10T12:59:04.544Z,7.35
2023-05-10T13:01:36.337Z,8.50
2023-05-10T13:04:07.931Z,8.85
2023-05-10T13:06:50.060Z,7.00
2023-05-10T13:09:29.358Z,8.40
2023-05-10T13:12:04.186Z,7.45
2023-05-10T13:14:33.676Z,7.13
2023-05-10T13:17:04.150Z,7.30
2023-05-10T13:19:51.750Z,7.15
2023-05-10T13:22:32.569Z,6.80
2023-05-10T13:25:08.478Z,7.45
2023-05-10T13:27:34.957Z,7.47
2023-05-10T13:30:01.797Z,8.00
2023-05-10T13:32:28.315Z,7.82
2023-05-10T13:34:54.876Z,6.72
2023-05-10T13:37:21.460Z,7.93
2023-05-10T13:39:48.143Z,7.40
2023-05-10T13:42:16.513Z,7.55
2023-05-10T13:44:43.188Z,7.80
2023-05-10T13:47:09.878Z,7.43
2023-05-10T13:49:36.423Z,7.45
2023-05-10T13:52:02.955Z,6.75
2023-05-10T13:54:29.435Z,7.40
2023-05-10T13:56:55.906Z,7.43
2023-05-10T13:59:23.703Z,4.45
2023-05-10T14:01:50.215Z,1.85
2023-05-10T14:04:16.697Z,1.42
2023-05-10T14:06:43.207Z,2.08
2023-05-10T14:09:09.773Z,2.33
2023-05-10T14:11:36.452Z,2.90
2023-05-10T14:14:02.901Z,2.58
2023-05-10T14:16:30.823Z,2.15
2023-05-10T14:18:57.329Z,3.22
2023-05-10T14:21:23.940Z,3.08
2023-05-10T14:23:50.398Z,3.58
2023-05-10T14:26:17.047Z,3.17
2023-05-10T14:28:43.537Z,4.10
2023-05-10T14:31:10.001Z,3.88
2023-05-10T14:33:37.814Z,4.85
2023-05-10T14:36:04.624Z,4.70
2023-05-10T14:38:31.142Z,4.60
2023-05-10T14:40:57.828Z,4.57
2023-05-10T14:43:24.274Z,4.25
2023-05-10T14:45:50.809Z,4.55
2023-05-10T14:48:17.952Z,4.55
2023-05-10T14:50:46.243Z,4.28
2023-05-10T14:53:12.728Z,2.88
2023-05-10T14:55:39.133Z,2.65
2023-05-10T14:58:05.770Z,2.15
2023-05-10T15:00:35.120Z,3.05
2023-05-10T15:03:02.437Z,2.55
2023-05-10T15:05:29.347Z,2.90
2023-05-10T15:07:57.852Z,3.20
2023-05-10T15:10:24.375Z,3.08
2023-05-10T15:12:50.967Z,2.42
2023-05-10T15:15:17.794Z,2.00
2023-05-10T15:17:44.564Z,2.28
2023-05-10T15:20:11.682Z,2.95
2023-05-10T15:22:38.121Z,2.10
2023-05-10T15:25:06.953Z,2.38
2023-05-10T15:27:33.467Z,2.28
2023-05-10T15:30:00.061Z,1.75
2023-05-10T15:32:26.662Z,1.80
2023-05-10T15:34:53.156Z,2.28
2023-05-10T15:37:19.570Z,2.15
2023-05-10T15:39:45.962Z,2.10
2023-05-10T15:42:13.718Z,2.72
2023-05-10T15:44:40.104Z,2.55
2023-05-10T15:47:06.597Z,2.53
2023-05-10T15:49:33.264Z,2.65
2023-05-10T15:51:59.690Z,2.15
2023-05-10T15:54:26.210Z,2.30
2023-05-10T15:56:52.689Z,1.92
2023-05-10T15:59:20.570Z,2.05
2023-05-10T16:01:47.071Z,1.17
2023-05-10T16:04:15.323Z,1.83
2023-05-10T16:06:41.753Z,2.03
2023-05-10T16:09:08.179Z,2.28
2023-05-10T16:11:34.633Z,2.45
2023-05-10T16:14:01.032Z,1.60
2023-05-10T16:16:28.935Z,1.85
2023-05-10T16:18:57.690Z,2.00
2023-05-10T16:21:24.219Z,3.15
2023-05-10T16:23:53.498Z,2.30
2023-05-10T16:26:19.952Z,2.40
2023-05-10T16:28:46.805Z,1.65
2023-05-10T16:31:13.257Z,2.60
2023-05-10T16:33:41.035Z,1.63
2023-05-10T16:36:09.435Z,1.77
2023-05-10T16:38:35.940Z,1.00
2023-05-10T16:41:02.534Z,1.35
2023-05-10T16:43:31.187Z,1.80
2023-05-10T16:45:57.723Z,1.92
2023-05-10T16:48:24.197Z,2.22
2023-05-10T16:50:55.171Z,2.63
2023-05-10T16:53:21.607Z,3.15
2023-05-10T16:55:48.029Z,2.67
2023-05-10T16:58:14.457Z,3.28
2023-05-10T17:00:40.921Z,3.10
2023-05-10T17:03:07.735Z,3.65
2023-05-10T17:05:39.765Z,3.60
2023-05-10T17:08:19.876Z,4.10
2023-05-10T17:10:46.637Z,3.90
2023-05-10T17:13:13.648Z,4.57
2023-05-10T17:15:40.334Z,4.57
2023-05-10T17:18:07.025Z,4.45
2023-05-10T17:20:39.163Z,4.63
2023-05-10T17:23:07.034Z,4.18
2023-05-10T17:25:35.147Z,4.82
2023-05-10T17:28:01.900Z,4.10
2023-05-10T17:30:31.699Z,5.97
2023-05-10T17:32:58.760Z,4.68
2023-05-10T17:35:29.527Z,5.72
2023-05-10T17:37:59.000Z,6.18
2023-05-10T17:40:26.756Z,5.88
2023-05-10T17:42:53.183Z,5.53
2023-05-10T17:45:35.038Z,5.88
2023-05-10T17:48:01.543Z,6.40
2023-05-10T17:50:28.004Z,5.75
2023-05-10T17:52:54.497Z,6.10
2023-05-10T17:55:20.924Z,4.65
2023-05-10T17:57:51.147Z,5.47
2023-05-10T18:00:24.603Z,4.95
2023-05-10T18:02:53.486Z,6.03
2023-05-10T18:05:23.232Z,5.43
2023-05-10T18:07:49.950Z,5.53
2023-05-10T18:10:16.506Z,5.70
2023-05-10T18:12:44.100Z,5.85
2023-05-10T18:15:20.780Z,5.85
2023-05-10T18:17:52.185Z,5.85
2023-05-10T18:20:18.889Z,5.40
2023-05-10T18:22:45.279Z,5.68
2023-05-10T18:25:11.706Z,4.38
2023-05-10T18:27:38.387Z,5.68
2023-05-10T18:30:08.695Z,5.15
2023-05-10T18:32:37.668Z,5.28
2023-05-10T18:35:10.127Z,4.45
2023-05-10T18:37:42.509Z,3.90
2023-05-10T18:40:09.524Z,4.55
2023-05-10T18:42:36.050Z,4.63
2023-05-10T18:45:02.955Z,5.15
2023-05-10T18:47:35.404Z,4.25
2023-05-10T18:50:04.810Z,4.97
2023-05-10T18:52:33.938Z,5.50
2023-05-10T18:55:03.947Z,4.38
2023-05-10T18:57:30.416Z,4.70
2023-05-10T18:59:57.135Z,6.68
2023-05-10T19:02:23.586Z,8.27
2023-05-10T19:04:52.444Z,8.45
2023-05-10T19:07:20.413Z,7.15
2023-05-10T19:09:47.013Z,6.63
2023-05-10T19:12:13.587Z,6.75
2023-05-10T19:14:40.165Z,7.95
2023-05-10T19:17:06.666Z,6.53
2023-05-10T19:19:33.262Z,6.15
2023-05-10T19:21:59.977Z,6.40
2023-05-10T19:24:28.047Z,6.18
2023-05-10T19:26:54.715Z,5.65
2023-05-10T19:29:21.152Z,6.53
2023-05-10T19:31:47.870Z,7.35
2023-05-10T19:34:14.611Z,5.88
2023-05-10T19:36:44.579Z,5.85
2023-05-10T19:39:11.226Z,6.65
2023-05-10T19:41:39.172Z,5.00
2023-05-10T19:44:05.690Z,5.55
2023-05-10T19:46:32.195Z,7.25
2023-05-10T19:48:58.647Z,7.55
2023-05-10T19:51:25.100Z,6.80
2023-05-10T19:53:51.687Z,7.93
2023-05-10T19:56:18.373Z,6.82
2023-05-10T19:58:46.398Z,6.95
2023-05-10T20:01:14.828Z,7.05
2023-05-10T20:03:41.386Z,8.20
2023-05-10T20:06:08.088Z,8.23
2023-05-10T20:08:34.482Z,8.07
2023-05-10T20:11:01.189Z,7.55
2023-05-10T20:13:27.955Z,7.65
2023-05-10T20:15:57.055Z,6.72
2023-05-10T20:18:23.751Z,7.25
2023-05-10T20:20:53.402Z,7.25
2023-05-10T20:23:19.983Z,6.88
2023-05-10T20:25:46.540Z,6.85
2023-05-10T20:28:12.989Z,6.75
2023-05-10T20:30:39.410Z,7.22
2023-05-10T20:33:07.210Z,7.55
2023-05-10T20:35:33.741Z,6.07
2023-05-10T20:38:00.157Z,6.30
2023-05-10T20:40:26.604Z,6.47
2023-05-10T20:42:53.056Z,6.95
2023-05-10T20:45:19.664Z,6.95
2023-05-10T20:47:46.251Z,7.88
2023-05-10T20:50:14.084Z,7.35
2023-05-10T20:52:40.539Z,6.25
2023-05-10T20:55:07.900Z,7.35
2023-05-10T20:57:34.279Z,7.65
2023-05-10T21:00:00.734Z,6.93
2023-05-10T21:02:27.299Z,7.30
2023-05-10T21:04:56.330Z,7.50
2023-05-10T21:07:25.516Z,7.45
2023-05-10T21:09:52.063Z,7.03
2023-05-10T21:12:18.593Z,7.28
2023-05-10T21:14:45.054Z,8.85
2023-05-10T21:17:11.573Z,8.88
2023-05-10T21:19:38.048Z,7.50
2023-05-10T21:22:10.718Z,8.23
2023-05-10T21:24:46.980Z,9.25
2023-05-10T21:27:13.406Z,7.50
2023-05-10T21:29:39.888Z,8.00
2023-05-10T21:32:06.577Z,8.88
2023-05-10T21:34:33.098Z,8.45
2023-05-10T21:36:59.626Z,7.93
2023-05-10T21:39:26.235Z,7.95
2023-05-10T21:41:54.319Z,8.18
2023-05-10T21:44:21.288Z,8.13
2023-05-10T21:46:47.757Z,8.55
2023-05-10T21:49:14.307Z,8.75
2023-05-10T21:51:40.829Z,7.72
2023-05-10T21:54:07.256Z,7.82
2023-05-10T21:56:33.725Z,8.55
2023-05-10T21:59:01.933Z,7.93
2023-05-10T22:01:28.525Z,7.78
2023-05-10T22:03:55.007Z,7.75
2023-05-10T22:06:21.452Z,7.80
2023-05-10T22:08:47.910Z,7.68
2023-05-10T22:11:14.397Z,6.72
2023-05-10T22:13:40.831Z,6.63
2023-05-10T22:16:08.622Z,7.72
2023-05-10T22:18:35.213Z,8.45
2023-05-10T22:21:01.661Z,7.38
2023-05-10T22:23:28.147Z,8.25
2023-05-10T22:25:58.834Z,8.57
2023-05-10T22:28:25.443Z,7.57
2023-05-10T22:30:51.983Z,8.00
2023-05-10T22:33:31.882Z,7.85
2023-05-10T22:35:58.364Z,7.45
2023-05-10T22:38:26.806Z,8.32
2023-05-10T22:40:53.318Z,8.45
2023-05-10T22:43:25.093Z,9.05
2023-05-10T22:45:51.544Z,8.90
2023-05-10T22:48:17.993Z,9.20
2023-05-10T22:50:45.818Z,9.05
2023-05-10T22:53:12.257Z,8.68
2023-05-10T22:55:38.764Z,8.40
2023-05-10T22:58:05.848Z,8.73
2023-05-10T23:00:32.506Z,8.82
2023-05-10T23:02:59.149Z,9.07
2023-05-10T23:05:25.690Z,8.18
2023-05-10T23:07:53.468Z,7.90
2023-05-10T23:10:20.132Z,8.63
2023-05-10T23:12:46.590Z,8.65
2023-05-10T23:15:13.075Z,7.93
2023-05-10T23:17:39.570Z,8.38
2023-05-10T23:20:07.355Z,8.43
2023-05-10T23:22:33.757Z,7.75
2023-05-10T23:25:01.627Z,9.32
2023-05-10T23:27:28.917Z,8.52
2023-05-10T23:29:55.409Z,8.23
2023-05-10T23:32:22.248Z,8.80
2023-05-10T23:34:48.924Z,9.05
2023-05-10T23:37:15.473Z,8.45
2023-05-10T23:39:41.911Z,9.73
2023-05-10T23:42:09.687Z,9.63
2023-05-10T23:44:36.097Z,8.68
2023-05-10T23:47:02.525Z,9.80
2023-05-10T23:49:31.305Z,10.23
2023-05-10T23:51:57.730Z,7.95
2023-05-10T23:54:24.135Z,9.15
2023-05-10T23:56:50.580Z,9.63
2023-05-10T23:59:18.359Z,9.40
